P08 weather

Coolidge Municipal Airport
Coolidge, Arizona, United States

Public forecast

Using degrees Fahrenheit for public forecast. Weather courtesy of forecast.io.

Current aviation weather report (METAR) for Coolidge Municipal Airport

Retrieved 2019/12/05 14:35 UTC (0 seconds ago):

KP08 051435Z AUTO RMK AO2 PNO PWINO TSNO

Closest aviation forecast (TAF) to Coolidge Municipal Airport

Closest forecast is Phoenix-Mesa-Gateway Airport, 25.1 nm (46.5 km) NNW. Retrieved 2019/12/05 12:22 UTC (2 hours ago):

TAF KIWA 051120Z 0512/0612 11005KT P6SM BKN070 BKN100 FM051700 16005KT P6SM SCT070 SCT250 FM052100 27005KT P6SM SCT070 SCT250 FM060400 10006KT P6SM FEW070 BKN250